Time;durP1;ratioP1;P1;durP2;ratioP2;P2;SDS_P1;SDS_P2;PMS_P1;PMS_P2;Temp;Humidity;BMP_temperature;BMP_pressure;BME280_temperature;BME280_humidity;BME280_pressure;Samples;Min_cycle;Max_cycle;Signal;HPM_P1;HPM_P2
2022/03/18 00:01:21;;;;;;;55.15;37.47;;;7.40;97.80;;;;;;5043415;28;20402;-81
2022/03/18 00:03:47;;;;;;;62.00;40.20;;;7.40;97.90;;;;;;5044578;28;20028;-79
2022/03/18 00:06:16;;;;;;;54.17;38.47;;;7.40;97.90;;;;;;5040553;28;20148;-81
2022/03/18 00:08:42;;;;;;;62.55;41.45;;;7.40;97.90;;;;;;5042333;28;20021;-81
2022/03/18 00:11:08;;;;;;;57.38;39.42;;;7.30;98.00;;;;;;5045578;28;20383;-82
2022/03/18 00:13:34;;;;;;;64.65;42.38;;;7.30;98.00;;;;;;5042189;28;20037;-81
2022/03/18 00:16:00;;;;;;;70.63;44.17;;;7.30;97.70;;;;;;5044095;28;20033;-82
2022/03/18 00:18:26;;;;;;;64.45;41.53;;;7.30;97.90;;;;;;5041811;28;20044;-81
2022/03/18 00:20:52;;;;;;;60.50;40.22;;;7.30;98.10;;;;;;5046501;28;20036;-81
2022/03/18 00:23:18;;;;;;;62.45;41.55;;;7.20;98.20;;;;;;5043348;28;20052;-81
2022/03/18 00:25:43;;;;;;;65.43;43.17;;;7.10;98.40;;;;;;5042600;28;20033;-81
2022/03/18 00:28:09;;;;;;;57.72;38.22;;;7.10;98.40;;;;;;5040110;28;20525;-80
2022/03/18 00:30:35;;;;;;;53.15;35.55;;;7.00;98.60;;;;;;5040892;28;20029;-79
2022/03/18 00:33:01;;;;;;;57.22;35.97;;;7.00;98.80;;;;;;5043092;28;20460;-82
2022/03/18 00:35:26;;;;;;;57.28;38.80;;;6.90;98.90;;;;;;5041301;28;20540;-81
2022/03/18 00:37:52;;;;;;;61.42;38.75;;;6.90;99.10;;;;;;5039369;28;20018;-80
2022/03/18 00:40:18;;;;;;;61.00;41.63;;;6.80;99.20;;;;;;5039331;28;20021;-80
2022/03/18 00:42:43;;;;;;;67.18;40.95;;;6.80;99.30;;;;;;5038395;28;20026;-80
2022/03/18 00:45:10;;;;;;;62.63;41.53;;;6.80;99.50;;;;;;5043790;28;20102;-83
2022/03/18 00:53:04;;;;;;;72.30;43.38;;;6.70;99.80;;;;;;5041142;28;20095;-80
2022/03/18 00:55:29;;;;;;;67.40;42.60;;;6.70;99.90;;;;;;5038871;28;20037;-80
2022/03/18 00:57:55;;;;;;;65.80;42.17;;;6.70;99.90;;;;;;5040147;28;20026;-80
2022/03/18 01:00:21;;;;;;;64.05;41.40;;;6.70;99.90;;;;;;5038910;28;20098;-81
2022/03/18 01:02:47;;;;;;;63.95;40.60;;;6.70;99.90;;;;;;5043796;28;20052;-81
2022/03/18 01:05:13;;;;;;;60.13;39.13;;;6.70;99.90;;;;;;5041798;28;20545;-80
2022/03/18 01:07:39;;;;;;;57.58;38.33;;;6.70;99.90;;;;;;5042294;28;20031;-79
2022/03/18 01:10:05;;;;;;;51.50;34.17;;;6.70;99.90;;;;;;5044492;28;20085;-81
2022/03/18 01:12:30;;;;;;;47.45;32.08;;;6.70;99.90;;;;;;5047396;28;20033;-80
2022/03/18 01:14:56;;;;;;;54.83;36.25;;;6.70;99.90;;;;;;5044384;28;20035;-80
2022/03/18 01:17:22;;;;;;;59.80;40.95;;;6.70;99.90;;;;;;5050672;28;20025;-81
2022/03/18 01:19:48;;;;;;;68.38;41.97;;;6.60;99.90;;;;;;5047735;28;20017;-82
2022/03/18 01:22:14;;;;;;;64.40;41.08;;;6.60;99.90;;;;;;5043950;28;20097;-81
2022/03/18 01:24:40;;;;;;;61.58;39.92;;;6.60;99.90;;;;;;5044198;28;20030;-82
2022/03/18 01:27:06;;;;;;;63.95;40.47;;;6.60;99.90;;;;;;5043323;28;20044;-83
2022/03/18 01:29:33;;;;;;;58.83;38.60;;;6.60;99.90;;;;;;5042431;28;20045;-81
2022/03/18 01:31:59;;;;;;;56.78;37.75;;;6.60;99.90;;;;;;5043974;28;20067;-81
2022/03/18 01:34:25;;;;;;;61.28;40.88;;;6.60;99.90;;;;;;5047748;28;20016;-80
2022/03/18 01:36:51;;;;;;;66.30;43.28;;;6.60;99.90;;;;;;5057841;28;20052;-82
2022/03/18 01:39:17;;;;;;;62.90;38.65;;;6.60;99.90;;;;;;5056386;28;20026;-84
2022/03/18 01:41:43;;;;;;;57.85;36.47;;;6.60;99.90;;;;;;5057049;28;20040;-84
2022/03/18 01:44:10;;;;;;;56.55;36.78;;;6.60;99.90;;;;;;5050485;28;20121;-81
2022/03/18 01:46:39;;;;;;;56.22;36.63;;;6.60;99.90;;;;;;5053737;28;20077;-81
2022/03/18 01:49:08;;;;;;;64.50;39.78;;;6.60;99.90;;;;;;5042026;28;20022;-81
2022/03/18 01:51:34;;;;;;;64.18;41.33;;;6.60;99.90;;;;;;5041808;28;20068;-80
2022/03/18 01:56:45;;;;;;;57.63;36.15;;;6.70;99.90;;;;;;5038328;28;20084;-81
2022/03/18 01:59:14;;;;;;;50.55;35.15;;;6.70;99.90;;;;;;5040295;28;20022;-81
2022/03/18 02:01:40;;;;;;;54.63;37.45;;;6.70;99.90;;;;;;5039852;28;20032;-79
2022/03/18 02:04:06;;;;;;;65.53;41.13;;;6.70;99.90;;;;;;5038431;28;20021;-80
2022/03/18 02:06:33;;;;;;;58.22;36.13;;;6.70;99.90;;;;;;5039537;28;20025;-80
2022/03/18 02:08:58;;;;;;;58.22;37.78;;;6.70;99.90;;;;;;5040237;28;20029;-80
2022/03/18 02:11:27;;;;;;;66.47;40.38;;;6.70;99.90;;;;;;5040274;28;20055;-81
2022/03/18 02:13:57;;;;;;;57.95;37.78;;;6.70;99.90;;;;;;5037721;28;20025;-81
2022/03/18 02:16:23;;;;;;;53.35;35.28;;;6.70;99.90;;;;;;5037225;28;20022;-80
2022/03/18 02:18:48;;;;;;;54.33;35.65;;;6.70;99.90;;;;;;5039364;28;20075;-80
2022/03/18 02:21:14;;;;;;;50.17;34.15;;;6.70;99.90;;;;;;5038801;28;20429;-79
2022/03/18 02:23:41;;;;;;;49.05;32.75;;;6.70;99.90;;;;;;5038224;28;20122;-80
2022/03/18 02:26:07;;;;;;;46.55;30.50;;;6.70;99.90;;;;;;5037540;28;20104;-80
2022/03/18 02:28:33;;;;;;;44.45;31.48;;;6.70;99.90;;;;;;5038763;28;20060;-81
2022/03/18 02:30:58;;;;;;;45.63;29.48;;;6.70;99.90;;;;;;5040466;28;20077;-81
2022/03/18 02:33:24;;;;;;;47.53;30.55;;;6.70;99.90;;;;;;5040097;28;20530;-81
2022/03/18 02:35:56;;;;;;;40.58;28.60;;;6.70;99.90;;;;;;5040142;28;20029;-81
2022/03/18 02:38:21;;;;;;;38.78;27.13;;;6.60;99.90;;;;;;5037660;28;20026;-82
2022/03/18 02:40:47;;;;;;;39.63;26.75;;;6.70;99.90;;;;;;5038486;28;20029;-80
2022/03/18 02:43:13;;;;;;;45.85;29.27;;;6.70;99.90;;;;;;5040397;28;20102;-81
2022/03/18 02:45:39;;;;;;;50.22;32.92;;;6.70;99.90;;;;;;5038974;28;20036;-80
2022/03/18 02:48:06;;;;;;;54.80;35.90;;;6.70;99.90;;;;;;5042528;28;20012;-80
2022/03/18 02:50:32;;;;;;;63.95;41.67;;;6.70;99.90;;;;;;5043808;28;20028;-81
2022/03/18 02:52:58;;;;;;;60.75;39.45;;;6.70;99.90;;;;;;5044934;28;20071;-83
2022/03/18 02:55:24;;;;;;;55.53;37.20;;;6.60;99.90;;;;;;5039900;28;20093;-80
2022/03/18 02:57:49;;;;;;;52.80;35.58;;;6.60;99.90;;;;;;5039400;28;20503;-81
2022/03/18 03:00:17;;;;;;;51.22;34.42;;;6.50;99.90;;;;;;5043689;28;20036;-80
2022/03/18 03:02:42;;;;;;;50.90;33.47;;;6.40;99.90;;;;;;5043508;28;20041;-79
2022/03/18 03:07:59;;;;;;;56.08;37.03;;;6.40;99.90;;;;;;5044280;28;20497;-80
2022/03/18 03:10:29;;;;;;;55.20;36.25;;;6.30;99.90;;;;;;5048098;28;20048;-81
2022/03/18 03:13:03;;;;;;;49.17;32.40;;;6.30;99.90;;;;;;5042298;28;20044;-80
2022/03/18 03:15:29;;;;;;;48.83;32.30;;;6.20;99.90;;;;;;5042470;28;20025;-82
2022/03/18 03:17:55;;;;;;;44.65;29.40;;;6.20;99.90;;;;;;5045242;28;20345;-80
2022/03/18 03:20:21;;;;;;;41.47;28.15;;;6.20;99.90;;;;;;5044583;28;20029;-81
2022/03/18 03:22:47;;;;;;;42.08;27.55;;;6.20;99.90;;;;;;5041431;28;20022;-80
2022/03/18 03:25:13;;;;;;;37.80;26.42;;;6.20;99.90;;;;;;5045670;28;20073;-82
2022/03/18 03:27:38;;;;;;;38.60;26.38;;;6.20;99.90;;;;;;5046998;28;20060;-82
2022/03/18 03:30:07;;;;;;;42.97;29.80;;;6.20;99.90;;;;;;5046142;28;20057;-79
2022/03/18 03:32:33;;;;;;;45.63;29.67;;;6.20;99.90;;;;;;5044666;28;20128;-81
2022/03/18 03:34:59;;;;;;;44.22;29.48;;;6.20;99.90;;;;;;5044679;28;20064;-80
2022/03/18 03:37:27;;;;;;;42.80;29.98;;;6.20;99.90;;;;;;5045100;28;20422;-80
2022/03/18 03:39:54;;;;;;;42.72;28.25;;;6.30;99.90;;;;;;5044919;28;20072;-79
2022/03/18 03:42:21;;;;;;;40.15;27.23;;;6.40;99.90;;;;;;5042164;28;20022;-80
2022/03/18 03:44:50;;;;;;;44.65;28.67;;;6.40;99.90;;;;;;5043054;28;20029;-80
2022/03/18 03:47:16;;;;;;;46.20;31.50;;;6.40;99.90;;;;;;5043229;28;20124;-80
2022/03/18 03:49:44;;;;;;;40.58;27.85;;;6.40;99.90;;;;;;5043850;28;20053;-84
2022/03/18 03:52:10;;;;;;;42.63;28.30;;;6.40;99.90;;;;;;5044295;28;20025;-80
2022/03/18 03:54:42;;;;;;;38.65;25.90;;;6.40;99.90;;;;;;5042484;28;20551;-81
2022/03/18 03:57:08;;;;;;;37.70;26.33;;;6.50;99.90;;;;;;5043589;28;20021;-81
2022/03/18 03:59:35;;;;;;;42.95;26.27;;;6.50;99.90;;;;;;5043409;28;20030;-81
2022/03/18 04:02:03;;;;;;;41.40;27.55;;;6.50;99.90;;;;;;5041853;28;20036;-80
2022/03/18 04:04:28;;;;;;;45.53;29.98;;;6.40;99.90;;;;;;5051245;28;20056;-82
2022/03/18 04:06:54;;;;;;;47.47;31.00;;;6.40;99.90;;;;;;5046434;28;20025;-81
2022/03/18 04:09:20;;;;;;;48.67;31.92;;;6.40;99.90;;;;;;5042373;28;20398;-79
2022/03/18 04:11:46;;;;;;;49.10;33.00;;;6.40;99.90;;;;;;5041456;28;20037;-80
2022/03/18 04:14:12;;;;;;;50.35;32.40;;;6.40;99.90;;;;;;5042107;28;20026;-80
2022/03/18 04:16:38;;;;;;;52.33;34.47;;;6.30;99.90;;;;;;5042120;28;20056;-81
2022/03/18 04:19:04;;;;;;;54.03;35.53;;;6.40;99.90;;;;;;5042187;28;20029;-81
2022/03/18 04:21:30;;;;;;;57.65;35.58;;;6.30;99.90;;;;;;5050227;28;20029;-84
2022/03/18 04:23:59;;;;;;;57.35;37.53;;;6.30;99.90;;;;;;5058022;28;20026;-80
2022/03/18 04:26:26;;;;;;;58.22;35.90;;;6.30;99.90;;;;;;5057107;28;20021;-83
2022/03/18 04:28:51;;;;;;;51.97;33.78;;;6.30;99.90;;;;;;5051500;28;20087;-77
2022/03/18 04:31:17;;;;;;;56.72;33.90;;;6.30;99.90;;;;;;5049112;28;20009;-76
2022/03/18 04:33:43;;;;;;;61.83;38.25;;;6.30;99.90;;;;;;5048508;28;20029;-77
2022/03/18 04:36:08;;;;;;;62.83;38.80;;;6.30;99.90;;;;;;5049649;28;20029;-77
2022/03/18 04:38:34;;;;;;;63.13;37.67;;;6.20;99.90;;;;;;5049116;28;20032;-77
2022/03/18 04:41:00;;;;;;;58.00;38.05;;;6.20;99.90;;;;;;5048346;28;20029;-76
2022/03/18 04:43:26;;;;;;;60.65;38.03;;;6.10;99.90;;;;;;5049414;28;20041;-77
2022/03/18 04:45:51;;;;;;;55.00;36.30;;;6.10;99.90;;;;;;5048202;28;20156;-77
2022/03/18 04:48:17;;;;;;;53.50;35.75;;;6.10;99.90;;;;;;5048418;28;20064;-75
2022/03/18 04:50:43;;;;;;;58.42;38.15;;;6.00;99.90;;;;;;5048116;28;20087;-76
2022/03/18 04:53:09;;;;;;;55.38;36.15;;;6.00;99.90;;;;;;5044906;28;20033;-77
2022/03/18 04:55:34;;;;;;;54.10;35.17;;;6.00;99.90;;;;;;5035093;28;20057;-76
2022/03/18 04:58:00;;;;;;;54.25;35.75;;;6.00;99.90;;;;;;5034966;28;20388;-75
2022/03/18 05:00:26;;;;;;;55.38;34.30;;;6.00;99.90;;;;;;5035054;28;20018;-76
2022/03/18 05:02:52;;;;;;;51.72;34.50;;;6.00;99.90;;;;;;5033541;28;20025;-77
2022/03/18 05:05:19;;;;;;;56.55;34.67;;;5.90;99.90;;;;;;5036637;28;20021;-77
2022/03/18 05:07:49;;;;;;;46.70;31.52;;;5.90;99.90;;;;;;5040940;28;20017;-77
2022/03/18 05:10:15;;;;;;;60.60;37.10;;;5.90;99.90;;;;;;5034380;28;20018;-77
2022/03/18 05:12:41;;;;;;;53.47;36.15;;;5.90;99.90;;;;;;5067117;22;20056;-81
2022/03/18 05:15:11;;;;;;;57.95;36.60;;;5.90;99.90;;;;;;5062626;28;20119;-81
2022/03/18 05:17:38;;;;;;;55.75;35.83;;;5.80;99.90;;;;;;5071690;28;20028;-81
2022/03/18 05:20:06;;;;;;;56.60;35.58;;;5.80;99.90;;;;;;5066073;28;20017;-83
2022/03/18 05:22:31;;;;;;;54.67;35.67;;;5.80;99.90;;;;;;5062768;28;20417;-82
2022/03/18 05:24:58;;;;;;;52.67;34.75;;;5.80;99.90;;;;;;5066511;28;20039;-81
2022/03/18 05:27:24;;;;;;;54.85;35.45;;;5.80;99.90;;;;;;5073629;28;20017;-81
2022/03/18 05:29:51;;;;;;;59.47;35.55;;;5.80;99.90;;;;;;5068943;28;20113;-80
2022/03/18 05:32:17;;;;;;;49.60;34.05;;;5.90;99.90;;;;;;5065162;28;20017;-82
2022/03/18 05:34:43;;;;;;;55.30;35.35;;;5.90;99.90;;;;;;5064874;28;20044;-82
2022/03/18 05:37:08;;;;;;;61.17;37.97;;;5.90;99.90;;;;;;5063298;28;20025;-81
2022/03/18 05:39:35;;;;;;;55.83;35.58;;;5.90;99.90;;;;;;5064210;28;20037;-81
2022/03/18 05:42:00;;;;;;;54.40;34.85;;;6.00;99.90;;;;;;5064434;28;20024;-80
2022/03/18 05:44:27;;;;;;;51.80;33.28;;;6.00;99.90;;;;;;5063776;28;20021;-80
2022/03/18 05:46:52;;;;;;;52.97;34.03;;;6.00;99.90;;;;;;5064326;28;20080;-80
2022/03/18 05:49:18;;;;;;;53.72;34.45;;;6.10;99.90;;;;;;5063898;28;20033;-81
2022/03/18 05:51:46;;;;;;;58.28;37.10;;;6.10;99.90;;;;;;5062733;28;20025;-81
2022/03/18 05:54:12;;;;;;;60.65;36.72;;;6.10;99.90;;;;;;5065014;28;20107;-81
2022/03/18 05:56:54;;;;;;;64.63;39.15;;;6.10;99.90;;;;;;5065182;28;20032;-81
2022/03/18 05:59:27;;;;;;;60.05;38.10;;;6.10;99.90;;;;;;5062600;28;20053;-81
2022/03/18 06:02:00;;;;;;;57.78;36.92;;;6.10;99.90;;;;;;5056914;28;20033;-81
2022/03/18 06:04:28;;;;;;;55.95;36.03;;;6.10;99.90;;;;;;5058332;28;20264;-82
2022/03/18 06:06:53;;;;;;;60.60;37.53;;;6.20;99.90;;;;;;5058027;28;20104;-81
2022/03/18 06:12:05;;;;;;;60.17;37.75;;;6.20;99.90;;;;;;5057838;28;20120;-81
2022/03/18 06:14:32;;;;;;;57.08;36.75;;;6.30;99.90;;;;;;5058116;28;20029;-81
2022/03/18 06:17:00;;;;;;;56.85;37.00;;;6.30;99.90;;;;;;5057573;28;20029;-81
2022/03/18 06:19:28;;;;;;;54.47;35.75;;;6.30;99.90;;;;;;5056827;28;21529;-81
2022/03/18 06:21:56;;;;;;;55.08;36.38;;;6.40;99.90;;;;;;5065326;28;20040;-79
2022/03/18 06:24:22;;;;;;;57.25;36.05;;;6.40;99.90;;;;;;5064505;28;20025;-80
2022/03/18 06:26:52;;;;;;;59.20;37.80;;;6.50;99.90;;;;;;5068328;28;20119;-79
2022/03/18 06:29:19;;;;;;;54.63;36.42;;;6.50;99.90;;;;;;5063091;28;20040;-81
2022/03/18 06:31:44;;;;;;;54.40;34.25;;;6.50;99.90;;;;;;5065081;28;20021;-80
2022/03/18 06:34:11;;;;;;;56.50;35.80;;;6.60;99.90;;;;;;5066710;28;20151;-81
2022/03/18 06:36:38;;;;;;;53.70;35.45;;;6.70;99.90;;;;;;5064829;28;20029;-81
2022/03/18 06:39:05;;;;;;;56.30;34.92;;;6.80;99.90;;;;;;5062882;28;20060;-80
2022/03/18 06:41:31;;;;;;;54.28;36.33;;;6.90;99.90;;;;;;5064866;28;20553;-81
2022/03/18 06:43:57;;;;;;;48.80;34.15;;;7.00;99.90;;;;;;5063194;28;20038;-81
2022/03/18 06:46:24;;;;;;;50.85;31.40;;;7.10;99.70;;;;;;5059480;28;20292;-81
2022/03/18 06:48:49;;;;;;;53.90;35.58;;;7.30;99.30;;;;;;5062653;28;20043;-81
2022/03/18 06:51:16;;;;;;;50.95;32.80;;;7.40;98.70;;;;;;5064706;28;20029;-80
2022/03/18 06:53:42;;;;;;;50.70;34.30;;;7.50;98.20;;;;;;5066578;28;20029;-81
2022/03/18 06:56:08;;;;;;;48.25;32.17;;;7.60;97.50;;;;;;5065761;28;20021;-81
2022/03/18 06:58:34;;;;;;;50.63;31.50;;;7.70;96.80;;;;;;5067380;28;20032;-81
2022/03/18 07:01:01;;;;;;;45.25;31.02;;;7.80;96.00;;;;;;5070218;28;20081;-80
2022/03/18 07:03:27;;;;;;;45.85;30.55;;;7.90;96.10;;;;;;5069567;28;20024;-78
2022/03/18 07:05:53;;;;;;;48.33;31.50;;;8.00;94.90;;;;;;5070672;28;20013;-79
2022/03/18 07:08:19;;;;;;;47.80;31.15;;;8.10;95.00;;;;;;5070439;28;20082;-79
2022/03/18 07:10:44;;;;;;;43.60;29.48;;;8.10;94.60;;;;;;5066528;28;20040;-79
2022/03/18 07:13:10;;;;;;;42.63;28.00;;;8.20;93.90;;;;;;5068828;28;20033;-80
2022/03/18 07:15:36;;;;;;;44.95;28.92;;;8.10;94.30;;;;;;5068737;28;20061;-80
2022/03/18 07:18:03;;;;;;;43.75;30.05;;;8.10;94.60;;;;;;5068064;28;20060;-80
2022/03/18 07:20:31;;;;;;;42.47;27.15;;;8.20;94.40;;;;;;5066415;28;20005;-81
2022/03/18 07:23:12;;;;;;;45.30;29.52;;;8.20;94.40;;;;;;5070894;28;20045;-82
2022/03/18 07:25:47;;;;;;;44.30;29.13;;;8.20;94.00;;;;;;5067687;28;20036;-82
2022/03/18 07:28:16;;;;;;;42.45;30.10;;;8.20;93.90;;;;;;5062841;28;20040;-81
2022/03/18 07:30:43;;;;;;;45.13;29.38;;;8.20;93.40;;;;;;5069741;28;20035;-81
2022/03/18 07:33:13;;;;;;;46.78;30.40;;;8.20;93.60;;;;;;5065670;28;20183;-80
2022/03/18 07:35:39;;;;;;;38.95;27.42;;;8.20;93.00;;;;;;5069156;28;20032;-81
2022/03/18 07:38:08;;;;;;;44.05;28.58;;;8.20;92.90;;;;;;5068473;28;20075;-81
2022/03/18 07:40:35;;;;;;;44.72;29.15;;;8.20;92.90;;;;;;5066297;28;20462;-79
2022/03/18 07:43:01;;;;;;;39.88;28.30;;;8.30;92.70;;;;;;5065759;28;20017;-81
2022/03/18 07:45:29;;;;;;;42.50;27.90;;;8.30;92.40;;;;;;5064486;28;20033;-81
2022/03/18 07:48:02;;;;;;;36.67;25.77;;;8.30;92.70;;;;;;5063572;28;20029;-81
2022/03/18 07:50:30;;;;;;;40.72;27.35;;;8.50;92.80;;;;;;5064708;28;20070;-80
2022/03/18 07:52:58;;;;;;;38.38;26.15;;;8.70;91.30;;;;;;5064747;28;20295;-81
2022/03/18 07:55:25;;;;;;;41.13;28.50;;;8.90;91.50;;;;;;5064642;28;20048;-80
2022/03/18 07:57:51;;;;;;;46.30;28.58;;;9.00;90.80;;;;;;5062664;28;20053;-81
2022/03/18 08:00:18;;;;;;;37.40;26.00;;;9.10;88.90;;;;;;5062145;28;20049;-82
2022/03/18 08:02:46;;;;;;;42.78;25.75;;;9.10;88.80;;;;;;5062877;28;20021;-81
2022/03/18 08:05:12;;;;;;;38.75;26.17;;;9.20;88.90;;;;;;5064463;28;20076;-81
2022/03/18 08:07:41;;;;;;;38.67;25.92;;;9.30;87.70;;;;;;5063693;28;20052;-81
2022/03/18 08:10:11;;;;;;;41.72;25.88;;;9.40;84.50;;;;;;5068428;28;20044;-82
2022/03/18 08:12:38;;;;;;;41.10;26.52;;;9.40;84.30;;;;;;5063855;28;20040;-81
2022/03/18 08:15:11;;;;;;;38.58;25.13;;;9.30;82.70;;;;;;5065829;28;20032;-81
2022/03/18 08:17:39;;;;;;;34.38;23.13;;;9.30;80.90;;;;;;5061924;28;20033;-82
2022/03/18 08:20:08;;;;;;;33.70;23.05;;;9.30;80.70;;;;;;5066614;28;20039;-81
2022/03/18 08:22:35;;;;;;;39.22;24.23;;;9.30;81.80;;;;;;5065039;28;20052;-81
2022/03/18 08:25:01;;;;;;;38.55;23.52;;;9.40;81.30;;;;;;5065561;28;20032;-81
2022/03/18 08:27:27;;;;;;;38.25;25.10;;;9.40;79.60;;;;;;5064174;28;20028;-82
2022/03/18 08:29:57;;;;;;;35.65;23.92;;;9.40;80.50;;;;;;5059708;28;20061;-81
2022/03/18 08:32:26;;;;;;;38.35;25.42;;;9.40;80.40;;;;;;5062402;28;20017;-81
2022/03/18 08:34:52;;;;;;;42.78;25.38;;;9.50;79.60;;;;;;5062460;28;20148;-79
2022/03/18 08:40:04;;;;;;;37.72;25.65;;;9.80;78.50;;;;;;5062899;28;20099;-80
2022/03/18 08:42:30;;;;;;;36.58;24.88;;;9.90;78.40;;;;;;5065973;28;20046;-81
2022/03/18 08:44:56;;;;;;;37.50;24.88;;;10.00;78.80;;;;;;5071976;28;20046;-80
2022/03/18 08:47:23;;;;;;;38.55;24.80;;;10.10;78.40;;;;;;5075892;28;20052;-81
2022/03/18 08:49:52;;;;;;;37.53;25.30;;;10.30;78.00;;;;;;5071799;28;20033;-79
2022/03/18 08:52:18;;;;;;;36.22;24.35;;;10.40;77.40;;;;;;5066508;28;20056;-80
2022/03/18 08:54:44;;;;;;;40.40;25.58;;;10.30;77.30;;;;;;5070269;28;20029;-81
2022/03/18 08:57:10;;;;;;;40.22;25.98;;;10.30;78.50;;;;;;5065552;28;20033;-79
2022/03/18 08:59:38;;;;;;;39.85;26.20;;;10.50;77.30;;;;;;5074985;28;20028;-80
2022/03/18 09:02:05;;;;;;;43.50;27.40;;;10.70;76.30;;;;;;5068089;28;20574;-80
2022/03/18 09:04:57;;;;;;;38.90;25.95;;;10.80;74.70;;;;;;5063876;28;20029;-77
2022/03/18 09:07:23;;;;;;;37.25;25.77;;;10.90;75.40;;;;;;5062036;28;20101;-79
2022/03/18 09:09:48;;;;;;;37.42;26.27;;;10.90;74.00;;;;;;5059933;28;20480;-78
2022/03/18 09:12:18;;;;;;;36.88;25.52;;;10.90;73.70;;;;;;5060400;28;20041;-79
2022/03/18 09:14:45;;;;;;;38.92;25.20;;;10.90;73.40;;;;;;5059360;28;20032;-79
2022/03/18 09:17:11;;;;;;;43.03;25.67;;;11.00;73.90;;;;;;5061152;28;20033;-79
2022/03/18 09:19:37;;;;;;;37.85;25.75;;;11.20;72.50;;;;;;5060004;28;20032;-78
2022/03/18 09:22:07;;;;;;;37.42;26.02;;;11.10;70.10;;;;;;5061658;28;20025;-79
2022/03/18 09:24:37;;;;;;;40.92;26.38;;;10.70;70.90;;;;;;5060706;28;20041;-78
2022/03/18 09:27:04;;;;;;;41.20;24.48;;;10.80;69.20;;;;;;5069794;28;20057;-78
2022/03/18 09:29:30;;;;;;;34.92;24.38;;;10.80;68.80;;;;;;5067002;28;20027;-79
2022/03/18 09:31:56;;;;;;;41.42;24.55;;;11.10;69.30;;;;;;5059732;28;20025;-79
2022/03/18 09:34:25;;;;;;;37.78;24.48;;;11.20;67.20;;;;;;5058496;28;20441;-78
2022/03/18 09:36:56;;;;;;;38.00;26.45;;;11.00;68.30;;;;;;5058525;28;20115;-78
2022/03/18 09:39:23;;;;;;;38.83;25.38;;;11.00;68.20;;;;;;5058219;28;20025;-78
2022/03/18 09:41:49;;;;;;;34.38;24.27;;;11.00;67.80;;;;;;5058208;28;20029;-78
2022/03/18 09:44:18;;;;;;;36.97;24.33;;;11.00;67.40;;;;;;5060330;28;20025;-79
2022/03/18 09:46:49;;;;;;;37.63;24.23;;;10.90;68.30;;;;;;5058352;28;20160;-78
2022/03/18 09:49:22;;;;;;;36.92;24.30;;;11.00;69.10;;;;;;5064662;28;20033;-79
2022/03/18 09:51:51;;;;;;;35.03;23.50;;;11.10;68.10;;;;;;5061912;28;20143;-79
2022/03/18 09:54:17;;;;;;;35.83;22.10;;;11.30;68.30;;;;;;5062098;28;20037;-79
2022/03/18 09:56:47;;;;;;;32.55;23.10;;;11.80;67.10;;;;;;5069923;28;20040;-78
2022/03/18 09:59:14;;;;;;;40.30;25.50;;;11.90;64.40;;;;;;5060088;28;20043;-79
2022/03/18 10:01:40;;;;;;;34.03;22.75;;;11.70;63.90;;;;;;5061686;28;20090;-78
2022/03/18 10:04:10;;;;;;;36.97;23.98;;;11.50;64.90;;;;;;5068395;28;20024;-79
2022/03/18 10:06:37;;;;;;;41.83;25.20;;;11.40;64.40;;;;;;5065798;28;20028;-78
2022/03/18 10:09:04;;;;;;;41.03;23.70;;;11.20;64.90;;;;;;5060405;28;20036;-78
2022/03/18 10:11:34;;;;;;;38.25;23.60;;;10.90;65.60;;;;;;5057365;28;20029;-78
2022/03/18 10:14:06;;;;;;;38.10;24.20;;;10.80;65.50;;;;;;5058930;28;20037;-81
2022/03/18 10:16:34;;;;;;;36.85;23.42;;;10.80;66.00;;;;;;5062079;28;20032;-78
2022/03/18 10:19:12;;;;;;;34.83;22.25;;;10.90;66.30;;;;;;5060248;28;20481;-81
2022/03/18 10:22:21;;;;;;;37.45;23.70;;;11.00;65.60;;;;;;5060031;28;20021;-78
2022/03/18 10:25:54;;;;;;;34.60;22.73;;;11.50;65.30;;;;;;5064790;28;20025;-80
2022/03/18 10:28:40;;;;;;;38.75;25.30;;;12.20;62.50;;;;;;5059186;28;20116;-79
2022/03/18 10:31:14;;;;;;;35.17;23.25;;;12.60;60.90;;;;;;5058366;28;20029;-79
2022/03/18 10:37:04;;;;;;;32.75;22.63;;;12.60;59.80;;;;;;5057029;28;20063;-79
2022/03/18 10:39:42;;;;;;;34.58;22.70;;;12.80;59.20;;;;;;5057281;28;20017;-78
2022/03/18 10:42:10;;;;;;;36.13;22.48;;;13.00;59.50;;;;;;5056273;28;20054;-78
2022/03/18 10:44:42;;;;;;;37.75;21.33;;;13.20;58.50;;;;;;5057538;28;20025;-78
2022/03/18 10:47:11;;;;;;;31.65;20.30;;;13.10;55.10;;;;;;5056105;28;20029;-80
2022/03/18 10:49:37;;;;;;;28.45;19.33;;;12.70;54.90;;;;;;5055730;28;20493;-80
2022/03/18 10:52:13;;;;;;;27.42;18.90;;;12.70;55.40;;;;;;5058551;28;20036;-80
2022/03/18 10:54:42;;;;;;;28.88;18.23;;;12.70;54.30;;;;;;5058382;28;20047;-79
2022/03/18 10:57:08;;;;;;;23.88;16.77;;;12.80;54.30;;;;;;5058481;28;20461;-79
2022/03/18 10:59:35;;;;;;;26.77;18.80;;;13.00;54.50;;;;;;5057259;28;20071;-80
2022/03/18 11:02:05;;;;;;;31.52;19.85;;;13.30;53.10;;;;;;5058446;28;20017;-79
2022/03/18 11:04:31;;;;;;;26.83;19.30;;;13.30;52.40;;;;;;5057506;28;20021;-79
2022/03/18 11:12:31;;;;;;;31.35;19.83;;;13.10;53.60;;;;;;5080963;22;20079;-77
2022/03/18 11:14:58;;;;;;;29.65;19.60;;;13.10;52.30;;;;;;5047796;28;20025;-78
2022/03/18 11:17:27;;;;;;;32.47;19.75;;;12.80;52.70;;;;;;5048343;28;20063;-79
2022/03/18 11:19:53;;;;;;;29.88;19.30;;;12.60;53.10;;;;;;5049590;28;20025;-79
2022/03/18 11:22:21;;;;;;;28.10;18.58;;;12.40;53.80;;;;;;5051034;28;20056;-80
2022/03/18 11:24:48;;;;;;;31.48;20.00;;;12.30;54.80;;;;;;5030888;28;20118;-79
2022/03/18 11:27:14;;;;;;;32.75;20.60;;;12.20;55.10;;;;;;5033693;28;20030;-78
2022/03/18 11:29:40;;;;;;;31.77;20.23;;;12.20;55.50;;;;;;5049081;28;20033;-79
2022/03/18 11:32:12;;;;;;;29.75;20.50;;;12.10;56.50;;;;;;5045496;28;20010;-78
2022/03/18 11:34:45;;;;;;;29.58;19.38;;;12.20;56.30;;;;;;5035411;28;20021;-80
2022/03/18 11:37:11;;;;;;;32.88;20.17;;;12.50;56.70;;;;;;5053140;28;20069;-79
2022/03/18 11:39:38;;;;;;;29.45;20.05;;;12.70;55.70;;;;;;5041601;28;20054;-79
2022/03/18 11:42:09;;;;;;;31.23;20.05;;;12.70;55.90;;;;;;5036784;28;20013;-79
2022/03/18 11:44:49;;;;;;;27.55;19.52;;;12.80;56.30;;;;;;5045501;28;20028;-78
2022/03/18 11:47:33;;;;;;;32.90;21.15;;;13.00;55.50;;;;;;5047794;28;20370;-80
2022/03/18 11:50:00;;;;;;;30.27;20.08;;;13.10;53.80;;;;;;5050739;28;20119;-79
2022/03/18 11:52:27;;;;;;;28.75;21.02;;;12.90;54.70;;;;;;5034053;28;20061;-79
2022/03/18 11:54:54;;;;;;;27.00;19.95;;;12.80;54.60;;;;;;5029947;28;20006;-79
2022/03/18 11:57:45;;;;;;;29.65;19.55;;;12.90;55.10;;;;;;5037241;28;20037;-79
2022/03/18 12:00:33;;;;;;;30.80;19.92;;;13.00;54.80;;;;;;5028862;28;20048;-79
2022/03/18 12:03:04;;;;;;;24.38;19.02;;;13.20;53.40;;;;;;5027198;28;20037;-79
2022/03/18 12:05:31;;;;;;;30.65;20.20;;;13.40;53.60;;;;;;5028328;28;20022;-78
2022/03/18 12:07:59;;;;;;;26.85;19.83;;;13.60;52.80;;;;;;5023963;28;20084;-78
2022/03/18 12:10:36;;;;;;;26.60;19.33;;;13.70;52.10;;;;;;5041095;28;20491;-80
2022/03/18 12:13:06;;;;;;;26.98;19.95;;;13.80;52.60;;;;;;5047268;28;20037;-80
2022/03/18 12:15:37;;;;;;;31.95;18.25;;;13.80;52.20;;;;;;5036423;28;20025;-79
2022/03/18 12:18:04;;;;;;;27.83;19.25;;;13.80;52.40;;;;;;5030382;28;19913;-80
2022/03/18 12:20:36;;;;;;;28.05;17.40;;;13.80;52.00;;;;;;5029637;28;20025;-79
2022/03/18 12:23:07;;;;;;;23.88;16.52;;;13.70;50.30;;;;;;5043522;28;20100;-80
2022/03/18 12:25:36;;;;;;;33.17;17.77;;;13.40;50.80;;;;;;5043216;28;20089;-80
2022/03/18 12:28:02;;;;;;;37.95;19.83;;;13.30;50.80;;;;;;5038980;28;20026;-79
2022/03/18 12:30:29;;;;;;;49.67;20.90;;;13.10;51.50;;;;;;5035031;28;20052;-80
2022/03/18 12:33:06;;;;;;;35.50;19.63;;;12.90;51.90;;;;;;5025996;28;20067;-80
2022/03/18 12:35:37;;;;;;;27.25;19.42;;;12.80;52.10;;;;;;5024792;28;20018;-78
2022/03/18 12:38:05;;;;;;;35.88;20.58;;;12.60;53.00;;;;;;5034458;28;20052;-79
2022/03/18 12:40:31;;;;;;;32.17;19.60;;;12.40;53.00;;;;;;5038145;28;20089;-80
2022/03/18 12:42:59;;;;;;;26.23;19.45;;;12.30;53.90;;;;;;5049173;28;20026;-78
2022/03/18 12:45:39;;;;;;;29.10;19.58;;;12.40;53.80;;;;;;5041090;28;20064;-77
2022/03/18 12:48:13;;;;;;;25.98;17.88;;;12.50;52.80;;;;;;5033844;28;20006;-77
2022/03/18 12:50:48;;;;;;;29.60;18.92;;;12.50;53.40;;;;;;5052009;28;20045;-78
2022/03/18 12:53:15;;;;;;;26.30;17.45;;;12.60;53.70;;;;;;5049432;28;20029;-79
2022/03/18 12:55:46;;;;;;;28.35;19.25;;;12.70;52.80;;;;;;5039948;28;20570;-79
2022/03/18 12:58:13;;;;;;;27.27;18.58;;;12.70;53.00;;;;;;5030930;28;20021;-78
2022/03/18 13:00:51;;;;;;;34.33;20.85;;;12.60;53.40;;;;;;5041247;28;20048;-78
2022/03/18 13:03:28;;;;;;;27.85;19.60;;;12.60;53.60;;;;;;5038754;28;20033;-79